»·PEaware :: N7474B KGEG-CYYF

N7474B :: KGEG-CYYF

FLIGHT INFORMATION

Flight Status: Arrived
Operator: Privately registered:
United States
More flights under this callsign
Pilot: Wayne R. (17783)
Aircraft: CESSNA 172 SKYHAWK
(C172)
More flights by this aircraft type
Origin: KGEG Spokane Intl
United States
Destination: CYYF Penticton
Canada
More flights between these airports :: More routes between these airports
Route:
File this flight plan on PilotEdge
Remarks:
Altitude:
(Current/Filed)
8,500ft
Speed:
(Current/Filed)
100kts
Departed: 04-Nov-19 08:08 PM
Arrived: 04-Nov-19 09:40 PM
Distance/Time
Traveled:
138nm/1:32
Distance/Time
To Go:
Arrived

Flight Plot

Page will automatically refresh every two minutes.

Flight plan parsing failed; only flown route is shown


Map Options




Map Legend


Flown Route
Filed Route
Departure Airport
Arrival Airport
Navaid (VOR, NDB)
Fix

Horizontal Profiles

Position Reports

Time Latitude Longitude Heading Altitude Ground
Speed
04-Nov-19 19:54 47.620434 -117.528553 359 2362ft 0kts
04-Nov-19 19:55 47.620434 -117.528553 358 2362ft 0kts
04-Nov-19 19:56 47.620434 -117.528553 358 2362ft 0kts
04-Nov-19 19:57 47.620434 -117.528553 358 2362ft 0kts
04-Nov-19 19:58 47.620434 -117.528553 358 2362ft 0kts
04-Nov-19 19:59 47.620434 -117.528553 358 2362ft 0kts
04-Nov-19 20:00 47.620434 -117.528553 358 2362ft 0kts
04-Nov-19 20:01 47.620434 -117.528553 358 2362ft 0kts
04-Nov-19 20:02 47.620965 -117.529223 282 2360ft 9kts
04-Nov-19 20:03 47.621621 -117.528991 5 2359ft 10kts
04-Nov-19 20:04 47.626871 -117.521350 45 2338ft 37kts
04-Nov-19 20:05 47.630330 -117.517244 322 2320ft 0kts
04-Nov-19 20:06 47.630446 -117.517392 316 2320ft 5kts
04-Nov-19 20:07 47.624151 -117.529314 224 2474ft 80kts
04-Nov-19 20:08 47.629270 -117.554291 323 3252ft 79kts
04-Nov-19 20:09 47.647574 -117.572746 321 3964ft 80kts
04-Nov-19 20:10 47.665700 -117.595104 316 4509ft 94kts
04-Nov-19 20:11 47.687470 -117.622209 320 4609ft 105kts
04-Nov-19 20:12 47.709785 -117.651781 323 4552ft 110kts
04-Nov-19 20:13 47.734798 -117.677754 329 4480ft 109kts
04-Nov-19 20:14 47.761452 -117.699544 325 4420ft 109kts
04-Nov-19 20:15 47.785380 -117.727362 326 4399ft 108kts
04-Nov-19 20:16 47.811844 -117.748543 341 4442ft 108kts
04-Nov-19 20:17 47.838606 -117.767909 332 4565ft 106kts
04-Nov-19 20:18 47.863876 -117.787314 341 4859ft 102kts
04-Nov-19 20:19 47.891406 -117.783161 15 5084ft 102kts
04-Nov-19 20:20 47.917857 -117.790517 339 5399ft 98kts
04-Nov-19 20:21 47.941353 -117.810809 327 5711ft 97kts
04-Nov-19 20:22 47.963270 -117.833205 324 6068ft 95kts
04-Nov-19 20:23 47.981601 -117.861273 312 6452ft 95kts
04-Nov-19 20:24 47.998406 -117.894144 303 6635ft 100kts
04-Nov-19 20:25 48.013107 -117.928376 315 6947ft 91kts
04-Nov-19 20:26 48.028181 -117.958322 315 7315ft 90kts
04-Nov-19 20:27 48.044172 -117.985832 313 7700ft 87kts
04-Nov-19 20:28 48.059935 -118.013758 321 8010ft 88kts
04-Nov-19 20:29 48.076032 -118.040813 302 8325ft 90kts
04-Nov-19 20:30 48.090112 -118.071760 315 8535ft 90kts
04-Nov-19 20:31 48.108629 -118.097045 323 8674ft 92kts
04-Nov-19 20:32 48.128955 -118.121301 312 8756ft 95kts
04-Nov-19 20:33 48.145592 -118.154175 320 8661ft 98kts
04-Nov-19 20:34 48.162486 -118.186880 303 8596ft 101kts
04-Nov-19 20:35 48.179233 -118.219899 325 8517ft 99kts
04-Nov-19 20:36 48.200058 -118.246713 319 8463ft 99kts
04-Nov-19 20:37 48.218203 -118.278502 317 8405ft 100kts
04-Nov-19 20:38 48.240245 -118.302865 325 8373ft 98kts
04-Nov-19 20:39 48.258225 -118.334003 311 8350ft 99kts
04-Nov-19 20:40 48.279793 -118.357218 349 8320ft 98kts
04-Nov-19 20:41 48.306333 -118.360134 331 8354ft 93kts
04-Nov-19 20:42 48.330677 -118.373877 338 8398ft 94kts
04-Nov-19 20:43 48.353953 -118.390737 320 8466ft 93kts
04-Nov-19 20:44 48.374353 -118.415090 321 8523ft 93kts
04-Nov-19 20:45 48.393784 -118.441058 330 8549ft 94kts
04-Nov-19 20:46 48.414976 -118.463589 325 8576ft 94kts
04-Nov-19 20:47 48.438403 -118.481750 335 8577ft 95kts
04-Nov-19 20:48 48.461759 -118.499972 327 8585ft 94kts
04-Nov-19 20:49 48.482924 -118.522997 313 8602ft 94kts
04-Nov-19 20:50 48.501501 -118.551462 320 8538ft 96kts
04-Nov-19 20:51 48.524851 -118.571184 326 8512ft 96kts
04-Nov-19 20:52 48.541185 -118.602146 306 8478ft 95kts
04-Nov-19 20:53 48.561010 -118.628484 320 8467ft 95kts
04-Nov-19 20:54 48.583384 -118.649974 331 8468ft 96kts
04-Nov-19 20:55 48.604229 -118.673692 316 8481ft 95kts
04-Nov-19 20:56 48.626975 -118.692825 326 8484ft 96kts
04-Nov-19 20:57 48.648206 -118.718389 322 8501ft 95kts
04-Nov-19 20:58 48.673212 -118.733102 344 8510ft 99kts
04-Nov-19 20:59 48.701206 -118.725802 356 8481ft 104kts
04-Nov-19 21:00 48.727118 -118.737135 331 8514ft 96kts
04-Nov-19 21:01 48.750982 -118.755387 319 8521ft 96kts
04-Nov-19 21:02 48.770602 -118.782255 316 8546ft 95kts
04-Nov-19 21:03 48.791979 -118.805782 311 8540ft 96kts
04-Nov-19 21:04 48.809588 -118.836495 313 8545ft 96kts
04-Nov-19 21:05 48.830824 -118.862323 321 8543ft 98kts
04-Nov-19 21:07 48.851472 -118.889892 315 8545ft 99kts
04-Nov-19 21:08 48.870640 -118.920786 321 8531ft 102kts
04-Nov-19 21:09 48.896322 -118.940108 328 8543ft 103kts
04-Nov-19 21:10 48.918641 -118.967449 314 8538ft 104kts
04-Nov-19 21:11 48.944455 -118.988085 330 8550ft 105kts
04-Nov-19 21:12 48.970570 -119.008809 325 8575ft 105kts
04-Nov-19 21:13 48.993643 -119.035882 322 8605ft 105kts
04-Nov-19 21:14 49.016940 -119.062099 308 8593ft 104kts
04-Nov-19 21:15 49.008674 -119.098090 184 8356ft 130kts
04-Nov-19 21:16 48.997965 -119.059099 64 8413ft 123kts
04-Nov-19 21:17 49.020510 -119.064581 304 8473ft 101kts
04-Nov-19 21:18 49.037922 -119.098772 310 8514ft 102kts
04-Nov-19 21:19 49.056495 -119.130966 307 8571ft 100kts
04-Nov-19 21:20 49.075606 -119.161654 315 8578ft 99kts
04-Nov-19 21:21 49.095141 -119.191248 317 8581ft 98kts
04-Nov-19 21:22 49.114631 -119.220534 316 8590ft 97kts
04-Nov-19 21:23 49.135621 -119.246597 326 8595ft 97kts
04-Nov-19 21:24 49.156700 -119.272249 317 8569ft 98kts
04-Nov-19 21:25 49.173062 -119.305443 305 8509ft 98kts
04-Nov-19 21:26 49.190713 -119.336719 315 8421ft 96kts
04-Nov-19 21:27 49.209654 -119.366303 320 8257ft 97kts
04-Nov-19 21:28 49.226626 -119.398289 302 8109ft 99kts
04-Nov-19 21:28 49.239987 -119.426518 314 7968ft 98kts
04-Nov-19 21:30 49.262154 -119.461045 312 7708ft 98kts
04-Nov-19 21:30 49.276845 -119.487675 313 7548ft 98kts
04-Nov-19 21:31 49.291621 -119.522981 303 7276ft 99kts
04-Nov-19 21:33 49.308583 -119.564910 309 6379ft 102kts
04-Nov-19 21:33 49.326141 -119.587116 328 5792ft 100kts
04-Nov-19 21:34 49.350490 -119.605626 347 4948ft 98kts
04-Nov-19 21:36 49.382659 -119.607079 359 3783ft 100kts
04-Nov-19 21:36 49.404426 -119.604997 0 3038ft 89kts
04-Nov-19 21:37 49.427264 -119.603310 1 2121ft 81kts
04-Nov-19 21:38 49.448369 -119.602765 2 1360ft 76kts
04-Nov-19 21:39 49.461152 -119.603487 263 1125ft 8kts

Navigation Log

Ident Type
Flight plan parsing failed, navigation log unavailable